IDs: Format: Raw Decoded Include TAF

Data at: 2031 UTC 23 Mar 2018

METAR for:KBEA (Beeville Muni, TX, US)
Text:KBEA 232015Z AUTO 14017G21KT 10SM BKN041 OVC048 27/17 A3003 RMK AO2 T02670173
Temperature: 26.7°C ( 80°F)
Dewpoint: 17.3°C ( 63°F) [RH = 56%]
Pressure (altimeter):30.03 inches Hg (1017.0 mb)
Winds:from the SE (140 degrees) at 20 MPH (17 knots; 8.7 m/s) gusting to 24 MPH (21 knots; 10.8 m/s)
Visibility:10 or more sm (16+ km)
Ceiling:4100 feet AGL
Clouds: broken clouds at 4100 feet AGL, overcast cloud deck at 4800 feet AGL
QC Flag:automated observation with no human augmentation